sensor_id;sensor_type;location;lat;lon;timestamp;P1;durP1;ratioP1;P2;durP2;ratioP2
9260;SDS011;4667;42.726;23.252;2023-07-02T00:02:10;9.98;;;6.30;;
9260;SDS011;4667;42.726;23.252;2023-07-02T00:04:37;10.10;;;6.27;;
9260;SDS011;4667;42.726;23.252;2023-07-02T00:07:04;8.93;;;6.00;;
9260;SDS011;4667;42.726;23.252;2023-07-02T00:09:31;9.82;;;6.65;;
9260;SDS011;4667;42.726;23.252;2023-07-02T00:11:58;9.13;;;6.40;;
9260;SDS011;4667;42.726;23.252;2023-07-02T00:14:24;11.52;;;6.78;;
9260;SDS011;4667;42.726;23.252;2023-07-02T00:16:52;8.88;;;6.00;;
9260;SDS011;4667;42.726;23.252;2023-07-02T00:19:19;7.30;;;5.57;;
9260;SDS011;4667;42.726;23.252;2023-07-02T00:21:46;8.52;;;5.80;;
9260;SDS011;4667;42.726;23.252;2023-07-02T00:24:13;9.02;;;6.32;;
9260;SDS011;4667;42.726;23.252;2023-07-02T00:26:41;7.88;;;6.00;;
9260;SDS011;4667;42.726;23.252;2023-07-02T00:29:08;10.68;;;6.60;;
9260;SDS011;4667;42.726;23.252;2023-07-02T00:31:35;10.85;;;6.57;;
9260;SDS011;4667;42.726;23.252;2023-07-02T00:34:03;6.88;;;5.95;;
9260;SDS011;4667;42.726;23.252;2023-07-02T00:36:30;9.77;;;6.60;;
9260;SDS011;4667;42.726;23.252;2023-07-02T00:38:58;10.70;;;7.00;;
9260;SDS011;4667;42.726;23.252;2023-07-02T00:41:26;12.45;;;6.45;;
9260;SDS011;4667;42.726;23.252;2023-07-02T00:43:53;8.15;;;5.78;;
9260;SDS011;4667;42.726;23.252;2023-07-02T00:46:21;9.60;;;6.72;;
9260;SDS011;4667;42.726;23.252;2023-07-02T00:48:50;12.40;;;6.60;;
9260;SDS011;4667;42.726;23.252;2023-07-02T00:51:20;10.07;;;7.07;;
9260;SDS011;4667;42.726;23.252;2023-07-02T00:53:48;11.10;;;6.97;;
9260;SDS011;4667;42.726;23.252;2023-07-02T00:56:16;9.13;;;7.13;;
9260;SDS011;4667;42.726;23.252;2023-07-02T00:58:43;10.38;;;6.70;;
9260;SDS011;4667;42.726;23.252;2023-07-02T01:01:13;10.18;;;6.22;;
9260;SDS011;4667;42.726;23.252;2023-07-02T01:03:49;11.55;;;7.18;;
9260;SDS011;4667;42.726;23.252;2023-07-02T01:06:22;10.32;;;6.60;;
9260;SDS011;4667;42.726;23.252;2023-07-02T01:08:51;11.02;;;6.47;;
9260;SDS011;4667;42.726;23.252;2023-07-02T01:11:20;9.93;;;6.65;;
9260;SDS011;4667;42.726;23.252;2023-07-02T01:13:49;8.60;;;6.50;;
9260;SDS011;4667;42.726;23.252;2023-07-02T01:16:19;10.20;;;6.13;;
9260;SDS011;4667;42.726;23.252;2023-07-02T01:18:47;11.97;;;6.63;;
9260;SDS011;4667;42.726;23.252;2023-07-02T01:21:17;8.63;;;6.47;;
9260;SDS011;4667;42.726;23.252;2023-07-02T01:23:45;11.50;;;6.50;;
9260;SDS011;4667;42.726;23.252;2023-07-02T01:26:15;9.45;;;6.45;;
9260;SDS011;4667;42.726;23.252;2023-07-02T01:28:42;11.63;;;6.93;;
9260;SDS011;4667;42.726;23.252;2023-07-02T01:31:09;12.00;;;7.32;;
9260;SDS011;4667;42.726;23.252;2023-07-02T01:33:35;9.85;;;6.50;;
9260;SDS011;4667;42.726;23.252;2023-07-02T01:36:02;8.77;;;6.35;;
9260;SDS011;4667;42.726;23.252;2023-07-02T01:38:31;11.25;;;6.60;;
9260;SDS011;4667;42.726;23.252;2023-07-02T01:40:58;11.60;;;6.97;;
9260;SDS011;4667;42.726;23.252;2023-07-02T01:43:24;8.48;;;6.40;;
9260;SDS011;4667;42.726;23.252;2023-07-02T01:45:51;12.93;;;7.13;;
9260;SDS011;4667;42.726;23.252;2023-07-02T01:48:18;13.98;;;7.38;;
9260;SDS011;4667;42.726;23.252;2023-07-02T01:50:45;9.70;;;7.38;;
9260;SDS011;4667;42.726;23.252;2023-07-02T01:53:12;13.05;;;7.88;;
9260;SDS011;4667;42.726;23.252;2023-07-02T01:55:40;9.65;;;6.32;;
9260;SDS011;4667;42.726;23.252;2023-07-02T01:58:07;10.52;;;6.25;;
9260;SDS011;4667;42.726;23.252;2023-07-02T02:00:34;10.45;;;6.85;;
9260;SDS011;4667;42.726;23.252;2023-07-02T02:03:01;10.77;;;7.78;;
9260;SDS011;4667;42.726;23.252;2023-07-02T02:05:28;9.65;;;6.75;;
9260;SDS011;4667;42.726;23.252;2023-07-02T02:07:54;12.87;;;7.63;;
9260;SDS011;4667;42.726;23.252;2023-07-02T02:10:21;11.73;;;7.55;;
9260;SDS011;4667;42.726;23.252;2023-07-02T02:12:49;14.00;;;7.23;;
9260;SDS011;4667;42.726;23.252;2023-07-02T02:15:16;12.77;;;6.50;;
9260;SDS011;4667;42.726;23.252;2023-07-02T02:17:43;10.77;;;7.85;;
9260;SDS011;4667;42.726;23.252;2023-07-02T02:20:11;9.85;;;6.60;;
9260;SDS011;4667;42.726;23.252;2023-07-02T02:22:38;11.32;;;6.97;;
9260;SDS011;4667;42.726;23.252;2023-07-02T02:25:04;13.10;;;8.03;;
9260;SDS011;4667;42.726;23.252;2023-07-02T02:27:31;13.57;;;8.33;;
9260;SDS011;4667;42.726;23.252;2023-07-02T02:30:00;11.57;;;7.27;;
9260;SDS011;4667;42.726;23.252;2023-07-02T02:32:26;12.20;;;7.27;;
9260;SDS011;4667;42.726;23.252;2023-07-02T02:34:53;15.80;;;8.27;;
9260;SDS011;4667;42.726;23.252;2023-07-02T02:37:20;12.23;;;7.77;;
9260;SDS011;4667;42.726;23.252;2023-07-02T02:39:48;15.30;;;8.30;;
9260;SDS011;4667;42.726;23.252;2023-07-02T02:42:16;15.70;;;7.60;;
9260;SDS011;4667;42.726;23.252;2023-07-02T02:44:42;13.50;;;7.70;;
9260;SDS011;4667;42.726;23.252;2023-07-02T02:47:10;16.23;;;7.80;;
9260;SDS011;4667;42.726;23.252;2023-07-02T02:49:37;15.03;;;8.07;;
9260;SDS011;4667;42.726;23.252;2023-07-02T02:52:05;14.50;;;7.37;;
9260;SDS011;4667;42.726;23.252;2023-07-02T02:54:32;12.10;;;7.97;;
9260;SDS011;4667;42.726;23.252;2023-07-02T02:56:59;12.93;;;7.93;;
9260;SDS011;4667;42.726;23.252;2023-07-02T02:59:26;11.60;;;7.60;;
9260;SDS011;4667;42.726;23.252;2023-07-02T03:01:52;14.97;;;7.90;;
9260;SDS011;4667;42.726;23.252;2023-07-02T03:04:21;12.73;;;8.07;;
9260;SDS011;4667;42.726;23.252;2023-07-02T03:06:50;12.80;;;7.47;;
9260;SDS011;4667;42.726;23.252;2023-07-02T03:09:18;16.30;;;8.60;;
9260;SDS011;4667;42.726;23.252;2023-07-02T03:11:45;14.23;;;7.10;;
9260;SDS011;4667;42.726;23.252;2023-07-02T03:14:12;13.33;;;8.10;;
9260;SDS011;4667;42.726;23.252;2023-07-02T03:16:39;15.23;;;7.27;;
9260;SDS011;4667;42.726;23.252;2023-07-02T03:19:06;14.70;;;8.20;;
9260;SDS011;4667;42.726;23.252;2023-07-02T03:21:34;13.13;;;7.47;;
9260;SDS011;4667;42.726;23.252;2023-07-02T03:24:00;13.70;;;8.10;;
9260;SDS011;4667;42.726;23.252;2023-07-02T03:26:27;10.37;;;7.53;;
9260;SDS011;4667;42.726;23.252;2023-07-02T03:28:54;10.90;;;7.37;;
9260;SDS011;4667;42.726;23.252;2023-07-02T03:31:21;16.80;;;8.20;;
9260;SDS011;4667;42.726;23.252;2023-07-02T03:33:47;15.40;;;8.53;;
9260;SDS011;4667;42.726;23.252;2023-07-02T03:36:14;18.27;;;8.70;;
9260;SDS011;4667;42.726;23.252;2023-07-02T03:38:42;13.85;;;8.77;;
9260;SDS011;4667;42.726;23.252;2023-07-02T03:41:09;14.43;;;7.67;;
9260;SDS011;4667;42.726;23.252;2023-07-02T03:43:35;14.23;;;9.67;;
9260;SDS011;4667;42.726;23.252;2023-07-02T03:46:02;15.77;;;8.17;;
9260;SDS011;4667;42.726;23.252;2023-07-02T03:48:29;13.90;;;8.80;;
9260;SDS011;4667;42.726;23.252;2023-07-02T03:50:56;10.93;;;8.67;;
9260;SDS011;4667;42.726;23.252;2023-07-02T03:53:22;13.93;;;8.17;;
9260;SDS011;4667;42.726;23.252;2023-07-02T03:55:51;15.55;;;8.38;;
9260;SDS011;4667;42.726;23.252;2023-07-02T03:58:17;13.43;;;8.40;;
9260;SDS011;4667;42.726;23.252;2023-07-02T04:00:44;11.50;;;8.70;;
9260;SDS011;4667;42.726;23.252;2023-07-02T04:03:14;11.80;;;8.23;;
9260;SDS011;4667;42.726;23.252;2023-07-02T04:05:41;11.95;;;8.68;;
9260;SDS011;4667;42.726;23.252;2023-07-02T04:08:08;12.00;;;8.07;;
9260;SDS011;4667;42.726;23.252;2023-07-02T04:10:35;14.47;;;8.33;;
9260;SDS011;4667;42.726;23.252;2023-07-02T04:13:04;9.97;;;7.47;;
9260;SDS011;4667;42.726;23.252;2023-07-02T04:15:30;14.30;;;9.10;;
9260;SDS011;4667;42.726;23.252;2023-07-02T04:17:57;15.83;;;8.27;;
9260;SDS011;4667;42.726;23.252;2023-07-02T04:20:24;15.27;;;8.57;;
9260;SDS011;4667;42.726;23.252;2023-07-02T04:22:53;12.83;;;8.87;;
9260;SDS011;4667;42.726;23.252;2023-07-02T04:25:20;13.80;;;9.50;;
9260;SDS011;4667;42.726;23.252;2023-07-02T04:27:47;12.93;;;8.80;;
9260;SDS011;4667;42.726;23.252;2023-07-02T04:30:16;11.43;;;7.97;;
9260;SDS011;4667;42.726;23.252;2023-07-02T04:32:43;13.07;;;8.17;;
9260;SDS011;4667;42.726;23.252;2023-07-02T04:35:10;12.32;;;8.02;;
9260;SDS011;4667;42.726;23.252;2023-07-02T04:37:37;16.80;;;8.82;;
9260;SDS011;4667;42.726;23.252;2023-07-02T04:40:05;12.45;;;8.35;;
9260;SDS011;4667;42.726;23.252;2023-07-02T04:42:34;11.93;;;8.07;;
9260;SDS011;4667;42.726;23.252;2023-07-02T04:45:03;15.40;;;8.10;;
9260;SDS011;4667;42.726;23.252;2023-07-02T04:47:42;14.57;;;9.15;;
9260;SDS011;4667;42.726;23.252;2023-07-02T04:50:15;12.70;;;8.70;;
9260;SDS011;4667;42.726;23.252;2023-07-02T04:52:42;17.20;;;8.73;;
9260;SDS011;4667;42.726;23.252;2023-07-02T04:55:09;15.27;;;9.43;;
9260;SDS011;4667;42.726;23.252;2023-07-02T04:57:37;11.45;;;8.13;;
9260;SDS011;4667;42.726;23.252;2023-07-02T05:00:04;14.50;;;9.20;;
9260;SDS011;4667;42.726;23.252;2023-07-02T05:02:33;14.32;;;8.52;;
9260;SDS011;4667;42.726;23.252;2023-07-02T05:05:01;13.50;;;8.75;;
9260;SDS011;4667;42.726;23.252;2023-07-02T05:07:28;12.60;;;8.35;;
9260;SDS011;4667;42.726;23.252;2023-07-02T05:09:54;13.95;;;8.63;;
9260;SDS011;4667;42.726;23.252;2023-07-02T05:12:21;13.20;;;9.00;;
9260;SDS011;4667;42.726;23.252;2023-07-02T05:14:49;13.68;;;8.52;;
9260;SDS011;4667;42.726;23.252;2023-07-02T05:17:16;14.52;;;8.88;;
9260;SDS011;4667;42.726;23.252;2023-07-02T05:19:43;16.13;;;8.65;;
9260;SDS011;4667;42.726;23.252;2023-07-02T05:22:18;15.90;;;8.13;;
9260;SDS011;4667;42.726;23.252;2023-07-02T05:24:44;18.75;;;10.20;;
9260;SDS011;4667;42.726;23.252;2023-07-02T05:27:11;17.25;;;9.95;;
9260;SDS011;4667;42.726;23.252;2023-07-02T05:29:38;14.02;;;9.40;;
9260;SDS011;4667;42.726;23.252;2023-07-02T05:32:05;14.85;;;9.50;;
9260;SDS011;4667;42.726;23.252;2023-07-02T05:34:32;14.68;;;8.95;;
9260;SDS011;4667;42.726;23.252;2023-07-02T05:36:59;12.27;;;8.45;;
9260;SDS011;4667;42.726;23.252;2023-07-02T05:39:27;15.30;;;9.57;;
9260;SDS011;4667;42.726;23.252;2023-07-02T05:41:54;15.50;;;9.40;;
9260;SDS011;4667;42.726;23.252;2023-07-02T05:44:22;11.23;;;8.75;;
9260;SDS011;4667;42.726;23.252;2023-07-02T05:46:49;16.85;;;9.20;;
9260;SDS011;4667;42.726;23.252;2023-07-02T05:49:15;13.85;;;8.65;;
9260;SDS011;4667;42.726;23.252;2023-07-02T05:51:42;15.82;;;10.68;;
9260;SDS011;4667;42.726;23.252;2023-07-02T05:54:09;18.88;;;9.25;;
9260;SDS011;4667;42.726;23.252;2023-07-02T05:56:37;11.48;;;8.38;;
9260;SDS011;4667;42.726;23.252;2023-07-02T05:59:03;12.85;;;9.50;;
9260;SDS011;4667;42.726;23.252;2023-07-02T06:01:30;13.75;;;9.65;;
9260;SDS011;4667;42.726;23.252;2023-07-02T06:03:57;17.20;;;8.77;;
9260;SDS011;4667;42.726;23.252;2023-07-02T06:06:23;16.20;;;10.07;;
9260;SDS011;4667;42.726;23.252;2023-07-02T06:08:50;14.10;;;8.77;;
9260;SDS011;4667;42.726;23.252;2023-07-02T06:11:17;18.63;;;11.90;;
9260;SDS011;4667;42.726;23.252;2023-07-02T06:13:45;18.20;;;10.50;;
9260;SDS011;4667;42.726;23.252;2023-07-02T06:16:12;14.60;;;9.20;;
9260;SDS011;4667;42.726;23.252;2023-07-02T06:18:39;15.52;;;9.90;;
9260;SDS011;4667;42.726;23.252;2023-07-02T06:21:07;16.50;;;9.93;;
9260;SDS011;4667;42.726;23.252;2023-07-02T06:23:41;16.67;;;10.45;;
9260;SDS011;4667;42.726;23.252;2023-07-02T06:26:08;16.55;;;11.30;;
9260;SDS011;4667;42.726;23.252;2023-07-02T06:28:35;17.00;;;11.55;;
9260;SDS011;4667;42.726;23.252;2023-07-02T06:31:03;13.38;;;10.20;;
9260;SDS011;4667;42.726;23.252;2023-07-02T06:33:30;17.23;;;11.98;;
9260;SDS011;4667;42.726;23.252;2023-07-02T06:35:56;19.48;;;13.98;;
9260;SDS011;4667;42.726;23.252;2023-07-02T06:38:23;18.95;;;11.23;;
9260;SDS011;4667;42.726;23.252;2023-07-02T06:40:50;21.90;;;13.52;;
9260;SDS011;4667;42.726;23.252;2023-07-02T06:43:17;23.27;;;14.05;;
9260;SDS011;4667;42.726;23.252;2023-07-02T06:45:43;18.35;;;10.55;;
9260;SDS011;4667;42.726;23.252;2023-07-02T06:48:12;17.00;;;10.93;;
9260;SDS011;4667;42.726;23.252;2023-07-02T06:50:42;21.13;;;11.18;;
9260;SDS011;4667;42.726;23.252;2023-07-02T06:53:09;15.80;;;8.95;;
9260;SDS011;4667;42.726;23.252;2023-07-02T06:55:36;14.00;;;10.48;;
9260;SDS011;4667;42.726;23.252;2023-07-02T06:58:04;18.67;;;11.52;;
9260;SDS011;4667;42.726;23.252;2023-07-02T07:00:31;13.13;;;9.73;;
9260;SDS011;4667;42.726;23.252;2023-07-02T07:02:57;15.23;;;10.07;;
9260;SDS011;4667;42.726;23.252;2023-07-02T07:05:25;16.60;;;10.23;;
9260;SDS011;4667;42.726;23.252;2023-07-02T07:07:52;15.18;;;10.25;;
9260;SDS011;4667;42.726;23.252;2023-07-02T07:10:19;14.40;;;9.80;;
9260;SDS011;4667;42.726;23.252;2023-07-02T07:12:45;19.88;;;10.38;;
9260;SDS011;4667;42.726;23.252;2023-07-02T07:15:12;14.57;;;9.75;;
9260;SDS011;4667;42.726;23.252;2023-07-02T07:17:39;18.58;;;10.32;;
9260;SDS011;4667;42.726;23.252;2023-07-02T07:20:06;16.73;;;10.02;;
9260;SDS011;4667;42.726;23.252;2023-07-02T07:22:35;19.35;;;12.13;;
9260;SDS011;4667;42.726;23.252;2023-07-02T07:25:01;15.90;;;9.18;;
9260;SDS011;4667;42.726;23.252;2023-07-02T07:27:29;14.30;;;9.00;;
9260;SDS011;4667;42.726;23.252;2023-07-02T07:29:55;13.40;;;9.32;;
9260;SDS011;4667;42.726;23.252;2023-07-02T07:32:22;14.00;;;10.00;;
9260;SDS011;4667;42.726;23.252;2023-07-02T07:34:49;13.77;;;9.68;;
9260;SDS011;4667;42.726;23.252;2023-07-02T07:37:16;16.88;;;10.38;;
9260;SDS011;4667;42.726;23.252;2023-07-02T07:39:44;14.45;;;9.57;;
9260;SDS011;4667;42.726;23.252;2023-07-02T07:42:10;13.65;;;9.93;;
9260;SDS011;4667;42.726;23.252;2023-07-02T07:44:37;17.38;;;8.90;;
9260;SDS011;4667;42.726;23.252;2023-07-02T07:47:04;13.38;;;8.75;;
9260;SDS011;4667;42.726;23.252;2023-07-02T07:49:31;13.65;;;9.52;;
9260;SDS011;4667;42.726;23.252;2023-07-02T07:51:57;13.55;;;8.50;;
9260;SDS011;4667;42.726;23.252;2023-07-02T07:54:24;14.02;;;9.27;;
9260;SDS011;4667;42.726;23.252;2023-07-02T07:56:52;14.90;;;8.77;;
9260;SDS011;4667;42.726;23.252;2023-07-02T07:59:19;14.75;;;8.48;;
9260;SDS011;4667;42.726;23.252;2023-07-02T08:01:46;12.88;;;8.70;;
9260;SDS011;4667;42.726;23.252;2023-07-02T08:04:12;15.35;;;8.93;;
9260;SDS011;4667;42.726;23.252;2023-07-02T08:06:39;13.48;;;8.95;;
9260;SDS011;4667;42.726;23.252;2023-07-02T08:09:06;14.23;;;9.57;;
9260;SDS011;4667;42.726;23.252;2023-07-02T08:11:34;14.30;;;8.10;;
9260;SDS011;4667;42.726;23.252;2023-07-02T08:14:02;14.02;;;9.40;;
9260;SDS011;4667;42.726;23.252;2023-07-02T08:16:28;15.95;;;9.43;;
9260;SDS011;4667;42.726;23.252;2023-07-02T08:18:55;13.77;;;8.77;;
9260;SDS011;4667;42.726;23.252;2023-07-02T08:24:00;17.17;;;9.23;;
9260;SDS011;4667;42.726;23.252;2023-07-02T08:26:26;17.95;;;9.48;;
9260;SDS011;4667;42.726;23.252;2023-07-02T08:28:53;13.15;;;9.23;;
9260;SDS011;4667;42.726;23.252;2023-07-02T08:31:21;15.82;;;9.70;;
9260;SDS011;4667;42.726;23.252;2023-07-02T08:33:48;14.80;;;8.80;;
9260;SDS011;4667;42.726;23.252;2023-07-02T08:36:15;17.20;;;8.57;;
9260;SDS011;4667;42.726;23.252;2023-07-02T08:38:41;17.42;;;9.57;;
9260;SDS011;4667;42.726;23.252;2023-07-02T08:41:08;13.43;;;9.50;;
9260;SDS011;4667;42.726;23.252;2023-07-02T08:43:35;12.95;;;8.60;;
9260;SDS011;4667;42.726;23.252;2023-07-02T08:46:02;12.75;;;8.38;;
9260;SDS011;4667;42.726;23.252;2023-07-02T08:48:30;14.85;;;8.63;;
9260;SDS011;4667;42.726;23.252;2023-07-02T08:50:57;13.10;;;8.07;;
9260;SDS011;4667;42.726;23.252;2023-07-02T08:53:24;12.45;;;8.05;;
9260;SDS011;4667;42.726;23.252;2023-07-02T08:55:54;11.43;;;8.40;;
9260;SDS011;4667;42.726;23.252;2023-07-02T08:58:21;10.77;;;7.88;;
9260;SDS011;4667;42.726;23.252;2023-07-02T09:01:03;18.05;;;8.15;;
9260;SDS011;4667;42.726;23.252;2023-07-02T09:03:32;12.32;;;8.10;;
9260;SDS011;4667;42.726;23.252;2023-07-02T09:06:00;15.52;;;7.68;;
9260;SDS011;4667;42.726;23.252;2023-07-02T09:08:26;24.50;;;18.15;;
9260;SDS011;4667;42.726;23.252;2023-07-02T09:10:56;12.55;;;8.65;;
9260;SDS011;4667;42.726;23.252;2023-07-02T09:13:41;10.18;;;8.35;;
9260;SDS011;4667;42.726;23.252;2023-07-02T09:16:08;12.40;;;8.38;;
9260;SDS011;4667;42.726;23.252;2023-07-02T09:18:36;10.88;;;8.10;;
9260;SDS011;4667;42.726;23.252;2023-07-02T09:21:03;11.07;;;8.07;;
9260;SDS011;4667;42.726;23.252;2023-07-02T09:23:34;11.23;;;8.27;;
9260;SDS011;4667;42.726;23.252;2023-07-02T09:26:01;9.85;;;7.53;;
9260;SDS011;4667;42.726;23.252;2023-07-02T09:28:28;14.63;;;10.35;;
9260;SDS011;4667;42.726;23.252;2023-07-02T09:30:56;19.83;;;10.90;;
9260;SDS011;4667;42.726;23.252;2023-07-02T09:33:24;14.95;;;7.30;;
9260;SDS011;4667;42.726;23.252;2023-07-02T09:35:52;11.77;;;8.15;;
9260;SDS011;4667;42.726;23.252;2023-07-02T09:38:19;12.98;;;7.00;;
9260;SDS011;4667;42.726;23.252;2023-07-02T09:40:48;9.80;;;7.15;;
9260;SDS011;4667;42.726;23.252;2023-07-02T09:43:17;9.15;;;7.30;;
9260;SDS011;4667;42.726;23.252;2023-07-02T09:45:45;10.20;;;6.90;;
9260;SDS011;4667;42.726;23.252;2023-07-02T09:48:13;9.65;;;7.95;;
9260;SDS011;4667;42.726;23.252;2023-07-02T09:50:41;10.35;;;7.57;;
9260;SDS011;4667;42.726;23.252;2023-07-02T09:53:11;8.85;;;7.18;;
9260;SDS011;4667;42.726;23.252;2023-07-02T09:55:38;8.88;;;6.55;;
9260;SDS011;4667;42.726;23.252;2023-07-02T09:58:05;11.25;;;6.97;;
9260;SDS011;4667;42.726;23.252;2023-07-02T10:00:33;9.55;;;7.00;;
9260;SDS011;4667;42.726;23.252;2023-07-02T10:03:00;10.07;;;6.43;;
9260;SDS011;4667;42.726;23.252;2023-07-02T10:05:27;7.97;;;6.50;;
9260;SDS011;4667;42.726;23.252;2023-07-02T10:07:55;9.25;;;6.78;;
9260;SDS011;4667;42.726;23.252;2023-07-02T10:10:27;9.73;;;7.18;;
9260;SDS011;4667;42.726;23.252;2023-07-02T10:12:55;10.23;;;6.57;;
9260;SDS011;4667;42.726;23.252;2023-07-02T10:15:25;8.65;;;6.38;;
9260;SDS011;4667;42.726;23.252;2023-07-02T10:17:56;10.00;;;6.40;;
9260;SDS011;4667;42.726;23.252;2023-07-02T10:20:32;9.68;;;6.90;;
9260;SDS011;4667;42.726;23.252;2023-07-02T10:23:00;9.13;;;6.15;;
9260;SDS011;4667;42.726;23.252;2023-07-02T10:25:29;7.45;;;6.13;;
9260;SDS011;4667;42.726;23.252;2023-07-02T10:27:57;11.13;;;8.82;;
9260;SDS011;4667;42.726;23.252;2023-07-02T10:30:31;13.60;;;9.48;;
9260;SDS011;4667;42.726;23.252;2023-07-02T10:33:08;8.82;;;6.10;;
9260;SDS011;4667;42.726;23.252;2023-07-02T10:35:36;10.10;;;6.50;;
9260;SDS011;4667;42.726;23.252;2023-07-02T10:38:03;6.60;;;5.63;;
9260;SDS011;4667;42.726;23.252;2023-07-02T10:40:32;10.50;;;6.05;;
9260;SDS011;4667;42.726;23.252;2023-07-02T10:43:02;10.32;;;5.40;;
9260;SDS011;4667;42.726;23.252;2023-07-02T10:45:32;6.85;;;5.32;;
9260;SDS011;4667;42.726;23.252;2023-07-02T10:48:03;9.00;;;5.28;;
9260;SDS011;4667;42.726;23.252;2023-07-02T10:50:31;9.90;;;8.32;;
9260;SDS011;4667;42.726;23.252;2023-07-02T10:53:03;8.05;;;4.93;;
9260;SDS011;4667;42.726;23.252;2023-07-02T10:55:30;9.27;;;5.20;;
9260;SDS011;4667;42.726;23.252;2023-07-02T10:58:07;10.18;;;5.50;;
9260;SDS011;4667;42.726;23.252;2023-07-02T11:00:46;5.40;;;4.82;;
9260;SDS011;4667;42.726;23.252;2023-07-02T11:03:17;9.50;;;5.53;;
9260;SDS011;4667;42.726;23.252;2023-07-02T11:05:46;6.50;;;5.00;;
9260;SDS011;4667;42.726;23.252;2023-07-02T11:08:15;7.47;;;4.82;;
9260;SDS011;4667;42.726;23.252;2023-07-02T11:11:04;18.70;;;15.35;;
9260;SDS011;4667;42.726;23.252;2023-07-02T11:13:34;10.13;;;8.10;;
9260;SDS011;4667;42.726;23.252;2023-07-02T11:16:16;8.18;;;6.45;;
9260;SDS011;4667;42.726;23.252;2023-07-02T11:18:50;13.70;;;6.38;;
9260;SDS011;4667;42.726;23.252;2023-07-02T11:21:19;9.00;;;5.30;;
9260;SDS011;4667;42.726;23.252;2023-07-02T11:23:48;10.30;;;6.78;;
9260;SDS011;4667;42.726;23.252;2023-07-02T11:26:15;13.38;;;7.72;;
9260;SDS011;4667;42.726;23.252;2023-07-02T11:28:52;9.13;;;5.65;;
9260;SDS011;4667;42.726;23.252;2023-07-02T11:31:25;11.00;;;6.80;;
9260;SDS011;4667;42.726;23.252;2023-07-02T11:33:53;9.10;;;6.55;;
9260;SDS011;4667;42.726;23.252;2023-07-02T11:36:30;6.60;;;5.63;;
9260;SDS011;4667;42.726;23.252;2023-07-02T11:38:58;9.15;;;6.75;;
9260;SDS011;4667;42.726;23.252;2023-07-02T11:41:25;8.32;;;5.30;;
9260;SDS011;4667;42.726;23.252;2023-07-02T11:44:03;8.63;;;5.03;;
9260;SDS011;4667;42.726;23.252;2023-07-02T11:46:30;6.82;;;5.43;;
9260;SDS011;4667;42.726;23.252;2023-07-02T11:48:57;7.88;;;5.50;;
9260;SDS011;4667;42.726;23.252;2023-07-02T11:51:24;8.00;;;5.18;;
9260;SDS011;4667;42.726;23.252;2023-07-02T11:53:52;7.75;;;5.07;;
9260;SDS011;4667;42.726;23.252;2023-07-02T11:56:21;6.82;;;4.95;;
9260;SDS011;4667;42.726;23.252;2023-07-02T11:58:48;10.00;;;5.70;;
9260;SDS011;4667;42.726;23.252;2023-07-02T12:01:16;8.23;;;5.88;;
9260;SDS011;4667;42.726;23.252;2023-07-02T12:03:57;7.53;;;6.30;;
9260;SDS011;4667;42.726;23.252;2023-07-02T12:06:25;7.22;;;5.50;;
9260;SDS011;4667;42.726;23.252;2023-07-02T12:08:52;8.90;;;5.82;;
9260;SDS011;4667;42.726;23.252;2023-07-02T12:11:19;6.22;;;4.30;;
9260;SDS011;4667;42.726;23.252;2023-07-02T12:13:46;5.75;;;4.50;;
9260;SDS011;4667;42.726;23.252;2023-07-02T12:16:12;5.53;;;4.30;;
9260;SDS011;4667;42.726;23.252;2023-07-02T12:18:41;8.73;;;5.32;;
9260;SDS011;4667;42.726;23.252;2023-07-02T12:21:10;8.27;;;5.35;;
9260;SDS011;4667;42.726;23.252;2023-07-02T12:23:37;6.45;;;5.28;;
9260;SDS011;4667;42.726;23.252;2023-07-02T12:26:06;6.25;;;5.13;;
9260;SDS011;4667;42.726;23.252;2023-07-02T12:28:33;8.15;;;5.72;;
9260;SDS011;4667;42.726;23.252;2023-07-02T12:31:03;7.47;;;5.65;;
9260;SDS011;4667;42.726;23.252;2023-07-02T12:33:33;8.40;;;5.55;;
9260;SDS011;4667;42.726;23.252;2023-07-02T12:36:03;10.68;;;6.22;;
9260;SDS011;4667;42.726;23.252;2023-07-02T12:38:34;7.47;;;5.90;;
9260;SDS011;4667;42.726;23.252;2023-07-02T12:41:02;8.70;;;6.43;;
9260;SDS011;4667;42.726;23.252;2023-07-02T12:43:29;6.70;;;6.00;;
9260;SDS011;4667;42.726;23.252;2023-07-02T12:45:58;6.95;;;6.15;;
9260;SDS011;4667;42.726;23.252;2023-07-02T12:48:25;8.90;;;6.57;;
9260;SDS011;4667;42.726;23.252;2023-07-02T12:50:55;7.35;;;6.57;;
9260;SDS011;4667;42.726;23.252;2023-07-02T12:53:35;7.57;;;5.93;;
9260;SDS011;4667;42.726;23.252;2023-07-02T12:56:02;7.50;;;6.03;;
9260;SDS011;4667;42.726;23.252;2023-07-02T12:58:33;8.20;;;5.90;;
9260;SDS011;4667;42.726;23.252;2023-07-02T13:01:13;8.10;;;6.40;;
9260;SDS011;4667;42.726;23.252;2023-07-02T13:03:47;7.15;;;5.90;;
9260;SDS011;4667;42.726;23.252;2023-07-02T13:06:30;7.45;;;5.97;;
9260;SDS011;4667;42.726;23.252;2023-07-02T13:09:06;6.28;;;5.47;;
9260;SDS011;4667;42.726;23.252;2023-07-02T13:11:38;5.95;;;5.25;;
9260;SDS011;4667;42.726;23.252;2023-07-02T13:14:07;7.50;;;5.72;;
9260;SDS011;4667;42.726;23.252;2023-07-02T13:16:41;7.32;;;5.40;;
9260;SDS011;4667;42.726;23.252;2023-07-02T13:19:17;7.40;;;6.30;;
9260;SDS011;4667;42.726;23.252;2023-07-02T13:22:01;9.48;;;7.47;;
9260;SDS011;4667;42.726;23.252;2023-07-02T13:24:51;9.35;;;6.95;;
9260;SDS011;4667;42.726;23.252;2023-07-02T13:27:25;7.72;;;6.28;;
9260;SDS011;4667;42.726;23.252;2023-07-02T13:30:00;9.02;;;7.40;;
9260;SDS011;4667;42.726;23.252;2023-07-02T13:32:30;7.03;;;5.72;;
9260;SDS011;4667;42.726;23.252;2023-07-02T13:35:11;8.95;;;6.45;;
9260;SDS011;4667;42.726;23.252;2023-07-02T13:37:53;8.32;;;6.68;;
9260;SDS011;4667;42.726;23.252;2023-07-02T13:40:22;8.77;;;7.88;;
9260;SDS011;4667;42.726;23.252;2023-07-02T13:42:49;8.98;;;6.03;;
9260;SDS011;4667;42.726;23.252;2023-07-02T13:45:15;8.20;;;6.28;;
9260;SDS011;4667;42.726;23.252;2023-07-02T13:47:42;8.43;;;6.25;;
9260;SDS011;4667;42.726;23.252;2023-07-02T13:50:10;9.20;;;6.15;;
9260;SDS011;4667;42.726;23.252;2023-07-02T13:52:37;9.45;;;6.22;;
9260;SDS011;4667;42.726;23.252;2023-07-02T13:55:05;10.10;;;6.70;;
9260;SDS011;4667;42.726;23.252;2023-07-02T13:57:34;10.43;;;8.10;;
9260;SDS011;4667;42.726;23.252;2023-07-02T14:00:03;9.15;;;6.97;;
9260;SDS011;4667;42.726;23.252;2023-07-02T14:02:30;9.05;;;7.22;;
9260;SDS011;4667;42.726;23.252;2023-07-02T14:04:58;13.48;;;7.28;;
9260;SDS011;4667;42.726;23.252;2023-07-02T14:07:26;8.80;;;6.95;;
9260;SDS011;4667;42.726;23.252;2023-07-02T14:09:54;9.82;;;6.68;;
9260;SDS011;4667;42.726;23.252;2023-07-02T14:12:21;8.13;;;6.90;;
9260;SDS011;4667;42.726;23.252;2023-07-02T14:14:48;10.52;;;7.40;;
9260;SDS011;4667;42.726;23.252;2023-07-02T14:17:17;10.65;;;7.18;;
9260;SDS011;4667;42.726;23.252;2023-07-02T14:19:44;10.02;;;7.85;;
9260;SDS011;4667;42.726;23.252;2023-07-02T14:22:11;9.57;;;7.53;;
9260;SDS011;4667;42.726;23.252;2023-07-02T14:24:38;10.77;;;7.35;;
9260;SDS011;4667;42.726;23.252;2023-07-02T14:27:05;9.40;;;7.10;;
9260;SDS011;4667;42.726;23.252;2023-07-02T14:29:32;9.27;;;7.28;;
9260;SDS011;4667;42.726;23.252;2023-07-02T14:31:59;10.02;;;7.25;;
9260;SDS011;4667;42.726;23.252;2023-07-02T14:34:27;10.00;;;7.07;;
9260;SDS011;4667;42.726;23.252;2023-07-02T14:37:08;11.02;;;6.63;;
9260;SDS011;4667;42.726;23.252;2023-07-02T14:39:38;8.95;;;7.53;;
9260;SDS011;4667;42.726;23.252;2023-07-02T14:42:11;13.27;;;8.82;;
9260;SDS011;4667;42.726;23.252;2023-07-02T14:44:38;10.88;;;7.13;;
9260;SDS011;4667;42.726;23.252;2023-07-02T14:47:08;9.90;;;6.95;;
9260;SDS011;4667;42.726;23.252;2023-07-02T14:50:07;9.88;;;7.05;;
9260;SDS011;4667;42.726;23.252;2023-07-02T14:52:40;9.43;;;7.00;;
9260;SDS011;4667;42.726;23.252;2023-07-02T14:55:08;8.30;;;6.82;;
9260;SDS011;4667;42.726;23.252;2023-07-02T14:57:40;10.00;;;8.02;;
9260;SDS011;4667;42.726;23.252;2023-07-02T15:00:16;8.82;;;7.15;;
9260;SDS011;4667;42.726;23.252;2023-07-02T15:02:51;10.20;;;7.65;;